sensor_id;sensor_type;location;lat;lon;timestamp;P1;durP1;ratioP1;P2;durP2;ratioP2
12385;SDS011;6257;57.634;18.310;2023-04-15T00:02:14;9.67;;;5.60;;
12385;SDS011;6257;57.634;18.310;2023-04-15T00:04:42;11.03;;;5.50;;
12385;SDS011;6257;57.634;18.310;2023-04-15T00:07:09;10.90;;;5.47;;
12385;SDS011;6257;57.634;18.310;2023-04-15T00:09:36;11.53;;;5.93;;
12385;SDS011;6257;57.634;18.310;2023-04-15T00:12:04;14.07;;;6.20;;
12385;SDS011;6257;57.634;18.310;2023-04-15T00:14:32;10.20;;;5.60;;
12385;SDS011;6257;57.634;18.310;2023-04-15T00:17:01;11.37;;;5.10;;
12385;SDS011;6257;57.634;18.310;2023-04-15T00:19:28;9.70;;;5.17;;
12385;SDS011;6257;57.634;18.310;2023-04-15T00:21:55;7.80;;;4.60;;
12385;SDS011;6257;57.634;18.310;2023-04-15T00:24:22;7.00;;;4.80;;
12385;SDS011;6257;57.634;18.310;2023-04-15T00:26:49;6.83;;;4.67;;
12385;SDS011;6257;57.634;18.310;2023-04-15T00:29:16;7.53;;;4.87;;
12385;SDS011;6257;57.634;18.310;2023-04-15T00:31:43;7.77;;;4.50;;
12385;SDS011;6257;57.634;18.310;2023-04-15T00:34:12;9.83;;;4.80;;
12385;SDS011;6257;57.634;18.310;2023-04-15T00:36:39;8.60;;;4.60;;
12385;SDS011;6257;57.634;18.310;2023-04-15T00:39:06;8.13;;;4.57;;
12385;SDS011;6257;57.634;18.310;2023-04-15T00:41:33;8.07;;;4.67;;
12385;SDS011;6257;57.634;18.310;2023-04-15T00:44:03;10.07;;;4.43;;
12385;SDS011;6257;57.634;18.310;2023-04-15T00:46:30;5.87;;;4.50;;
12385;SDS011;6257;57.634;18.310;2023-04-15T00:49:01;7.63;;;4.53;;
12385;SDS011;6257;57.634;18.310;2023-04-15T00:51:30;10.37;;;4.60;;
12385;SDS011;6257;57.634;18.310;2023-04-15T00:54:00;8.83;;;4.43;;
12385;SDS011;6257;57.634;18.310;2023-04-15T00:56:27;5.33;;;4.30;;
12385;SDS011;6257;57.634;18.310;2023-04-15T00:58:55;10.03;;;3.97;;
12385;SDS011;6257;57.634;18.310;2023-04-15T01:01:23;5.70;;;4.30;;
12385;SDS011;6257;57.634;18.310;2023-04-15T01:03:51;9.90;;;4.50;;
12385;SDS011;6257;57.634;18.310;2023-04-15T01:06:18;7.03;;;3.63;;
12385;SDS011;6257;57.634;18.310;2023-04-15T01:08:47;8.10;;;4.27;;
12385;SDS011;6257;57.634;18.310;2023-04-15T01:11:14;10.13;;;4.00;;
12385;SDS011;6257;57.634;18.310;2023-04-15T01:13:42;6.60;;;3.90;;
12385;SDS011;6257;57.634;18.310;2023-04-15T01:16:09;8.77;;;4.07;;
12385;SDS011;6257;57.634;18.310;2023-04-15T01:18:37;9.27;;;3.97;;
12385;SDS011;6257;57.634;18.310;2023-04-15T01:21:05;6.57;;;3.70;;
12385;SDS011;6257;57.634;18.310;2023-04-15T01:23:34;6.00;;;3.67;;
12385;SDS011;6257;57.634;18.310;2023-04-15T01:26:04;6.00;;;4.00;;
12385;SDS011;6257;57.634;18.310;2023-04-15T01:28:33;6.87;;;3.90;;
12385;SDS011;6257;57.634;18.310;2023-04-15T01:31:07;6.77;;;3.87;;
12385;SDS011;6257;57.634;18.310;2023-04-15T01:33:35;5.27;;;3.43;;
12385;SDS011;6257;57.634;18.310;2023-04-15T01:36:03;8.17;;;3.70;;
12385;SDS011;6257;57.634;18.310;2023-04-15T01:38:32;6.67;;;3.83;;
12385;SDS011;6257;57.634;18.310;2023-04-15T01:41:00;5.53;;;3.53;;
12385;SDS011;6257;57.634;18.310;2023-04-15T01:43:29;6.67;;;3.80;;
12385;SDS011;6257;57.634;18.310;2023-04-15T01:45:57;6.73;;;3.30;;
12385;SDS011;6257;57.634;18.310;2023-04-15T01:48:24;13.87;;;3.50;;
12385;SDS011;6257;57.634;18.310;2023-04-15T01:50:51;7.43;;;3.67;;
12385;SDS011;6257;57.634;18.310;2023-04-15T01:53:21;5.07;;;3.40;;
12385;SDS011;6257;57.634;18.310;2023-04-15T01:55:49;6.10;;;3.47;;
12385;SDS011;6257;57.634;18.310;2023-04-15T01:58:17;5.37;;;3.43;;
12385;SDS011;6257;57.634;18.310;2023-04-15T02:00:46;5.60;;;3.43;;
12385;SDS011;6257;57.634;18.310;2023-04-15T02:03:13;6.10;;;3.33;;
12385;SDS011;6257;57.634;18.310;2023-04-15T02:05:40;9.07;;;3.23;;
12385;SDS011;6257;57.634;18.310;2023-04-15T02:08:08;7.43;;;3.40;;
12385;SDS011;6257;57.634;18.310;2023-04-15T02:10:35;5.83;;;3.40;;
12385;SDS011;6257;57.634;18.310;2023-04-15T02:13:02;7.20;;;3.30;;
12385;SDS011;6257;57.634;18.310;2023-04-15T02:15:28;5.83;;;2.90;;
12385;SDS011;6257;57.634;18.310;2023-04-15T02:17:57;6.43;;;2.90;;
12385;SDS011;6257;57.634;18.310;2023-04-15T02:20:25;10.37;;;3.63;;
12385;SDS011;6257;57.634;18.310;2023-04-15T02:22:52;5.17;;;3.07;;
12385;SDS011;6257;57.634;18.310;2023-04-15T02:25:19;4.27;;;3.37;;
12385;SDS011;6257;57.634;18.310;2023-04-15T02:27:46;6.17;;;3.13;;
12385;SDS011;6257;57.634;18.310;2023-04-15T02:30:13;7.23;;;3.10;;
12385;SDS011;6257;57.634;18.310;2023-04-15T02:32:40;6.87;;;2.83;;
12385;SDS011;6257;57.634;18.310;2023-04-15T02:35:10;7.00;;;3.03;;
12385;SDS011;6257;57.634;18.310;2023-04-15T02:37:37;6.27;;;2.97;;
12385;SDS011;6257;57.634;18.310;2023-04-15T02:40:07;7.10;;;2.80;;
12385;SDS011;6257;57.634;18.310;2023-04-15T02:42:36;8.27;;;2.93;;
12385;SDS011;6257;57.634;18.310;2023-04-15T02:45:04;4.53;;;3.00;;
12385;SDS011;6257;57.634;18.310;2023-04-15T02:47:32;6.33;;;3.17;;
12385;SDS011;6257;57.634;18.310;2023-04-15T02:50:00;5.90;;;2.83;;
12385;SDS011;6257;57.634;18.310;2023-04-15T02:52:29;7.93;;;2.63;;
12385;SDS011;6257;57.634;18.310;2023-04-15T02:54:56;8.90;;;3.13;;
12385;SDS011;6257;57.634;18.310;2023-04-15T02:57:26;3.57;;;2.80;;
12385;SDS011;6257;57.634;18.310;2023-04-15T02:59:53;9.00;;;3.57;;
12385;SDS011;6257;57.634;18.310;2023-04-15T03:02:20;9.73;;;5.63;;
12385;SDS011;6257;57.634;18.310;2023-04-15T03:04:47;8.43;;;4.83;;
12385;SDS011;6257;57.634;18.310;2023-04-15T03:07:14;8.77;;;4.07;;
12385;SDS011;6257;57.634;18.310;2023-04-15T03:09:44;11.37;;;6.43;;
12385;SDS011;6257;57.634;18.310;2023-04-15T03:12:12;10.20;;;4.67;;
12385;SDS011;6257;57.634;18.310;2023-04-15T03:14:39;6.53;;;4.63;;
12385;SDS011;6257;57.634;18.310;2023-04-15T03:17:06;7.07;;;3.43;;
12385;SDS011;6257;57.634;18.310;2023-04-15T03:19:33;8.10;;;4.60;;
12385;SDS011;6257;57.634;18.310;2023-04-15T03:22:00;6.50;;;3.40;;
12385;SDS011;6257;57.634;18.310;2023-04-15T03:24:27;5.27;;;3.10;;
12385;SDS011;6257;57.634;18.310;2023-04-15T03:26:55;7.83;;;3.03;;
12385;SDS011;6257;57.634;18.310;2023-04-15T03:29:23;4.50;;;2.50;;
12385;SDS011;6257;57.634;18.310;2023-04-15T03:31:51;8.20;;;3.00;;
12385;SDS011;6257;57.634;18.310;2023-04-15T03:34:18;5.90;;;2.47;;
12385;SDS011;6257;57.634;18.310;2023-04-15T03:36:45;4.83;;;3.10;;
12385;SDS011;6257;57.634;18.310;2023-04-15T03:39:12;6.40;;;3.33;;
12385;SDS011;6257;57.634;18.310;2023-04-15T03:41:39;4.07;;;2.63;;
12385;SDS011;6257;57.634;18.310;2023-04-15T03:44:07;4.47;;;2.80;;
12385;SDS011;6257;57.634;18.310;2023-04-15T03:46:34;4.57;;;2.80;;
12385;SDS011;6257;57.634;18.310;2023-04-15T03:49:01;6.90;;;3.23;;
12385;SDS011;6257;57.634;18.310;2023-04-15T03:51:29;4.50;;;2.70;;
12385;SDS011;6257;57.634;18.310;2023-04-15T03:53:56;5.37;;;2.40;;
12385;SDS011;6257;57.634;18.310;2023-04-15T03:56:23;4.77;;;3.00;;
12385;SDS011;6257;57.634;18.310;2023-04-15T03:58:51;6.17;;;2.90;;
12385;SDS011;6257;57.634;18.310;2023-04-15T04:01:19;9.67;;;3.00;;
12385;SDS011;6257;57.634;18.310;2023-04-15T04:03:46;6.10;;;2.77;;
12385;SDS011;6257;57.634;18.310;2023-04-15T04:06:13;7.83;;;3.00;;
12385;SDS011;6257;57.634;18.310;2023-04-15T04:08:41;8.67;;;3.40;;
12385;SDS011;6257;57.634;18.310;2023-04-15T04:11:08;4.80;;;2.90;;
12385;SDS011;6257;57.634;18.310;2023-04-15T04:13:35;6.70;;;2.73;;
12385;SDS011;6257;57.634;18.310;2023-04-15T04:16:02;6.00;;;2.83;;
12385;SDS011;6257;57.634;18.310;2023-04-15T04:18:31;7.03;;;3.27;;
12385;SDS011;6257;57.634;18.310;2023-04-15T04:20:58;4.80;;;3.03;;
12385;SDS011;6257;57.634;18.310;2023-04-15T04:23:26;4.87;;;2.87;;
12385;SDS011;6257;57.634;18.310;2023-04-15T04:25:53;8.40;;;3.30;;
12385;SDS011;6257;57.634;18.310;2023-04-15T04:28:20;7.87;;;3.17;;
12385;SDS011;6257;57.634;18.310;2023-04-15T04:30:47;5.73;;;3.00;;
12385;SDS011;6257;57.634;18.310;2023-04-15T04:33:14;5.93;;;2.90;;
12385;SDS011;6257;57.634;18.310;2023-04-15T04:35:43;5.17;;;2.90;;
12385;SDS011;6257;57.634;18.310;2023-04-15T04:38:10;7.53;;;3.00;;
12385;SDS011;6257;57.634;18.310;2023-04-15T04:40:37;5.73;;;3.17;;
12385;SDS011;6257;57.634;18.310;2023-04-15T04:43:04;9.33;;;2.80;;
12385;SDS011;6257;57.634;18.310;2023-04-15T04:45:31;4.93;;;2.80;;
12385;SDS011;6257;57.634;18.310;2023-04-15T04:47:58;5.93;;;2.77;;
12385;SDS011;6257;57.634;18.310;2023-04-15T04:50:25;15.47;;;3.70;;
12385;SDS011;6257;57.634;18.310;2023-04-15T04:52:54;8.47;;;2.90;;
12385;SDS011;6257;57.634;18.310;2023-04-15T04:55:21;7.40;;;3.40;;
12385;SDS011;6257;57.634;18.310;2023-04-15T04:57:48;4.17;;;2.80;;
12385;SDS011;6257;57.634;18.310;2023-04-15T05:00:15;4.37;;;2.83;;
12385;SDS011;6257;57.634;18.310;2023-04-15T05:02:43;4.20;;;2.93;;
12385;SDS011;6257;57.634;18.310;2023-04-15T05:05:10;8.40;;;2.87;;
12385;SDS011;6257;57.634;18.310;2023-04-15T05:07:37;8.37;;;3.03;;
12385;SDS011;6257;57.634;18.310;2023-04-15T05:10:07;5.10;;;3.03;;
12385;SDS011;6257;57.634;18.310;2023-04-15T05:12:35;7.53;;;3.43;;
12385;SDS011;6257;57.634;18.310;2023-04-15T05:15:03;6.80;;;3.50;;
12385;SDS011;6257;57.634;18.310;2023-04-15T05:17:30;6.67;;;2.87;;
12385;SDS011;6257;57.634;18.310;2023-04-15T05:19:59;7.07;;;2.90;;
12385;SDS011;6257;57.634;18.310;2023-04-15T05:22:26;5.87;;;3.10;;
12385;SDS011;6257;57.634;18.310;2023-04-15T05:24:53;6.83;;;3.10;;
12385;SDS011;6257;57.634;18.310;2023-04-15T05:27:22;7.30;;;3.43;;
12385;SDS011;6257;57.634;18.310;2023-04-15T05:29:49;6.73;;;3.43;;
12385;SDS011;6257;57.634;18.310;2023-04-15T05:32:16;5.40;;;2.90;;
12385;SDS011;6257;57.634;18.310;2023-04-15T05:34:43;6.23;;;3.13;;
12385;SDS011;6257;57.634;18.310;2023-04-15T05:37:10;5.60;;;3.80;;
12385;SDS011;6257;57.634;18.310;2023-04-15T05:39:37;5.77;;;3.30;;
12385;SDS011;6257;57.634;18.310;2023-04-15T05:42:04;7.27;;;3.40;;
12385;SDS011;6257;57.634;18.310;2023-04-15T05:44:33;6.03;;;3.53;;
12385;SDS011;6257;57.634;18.310;2023-04-15T05:47:00;7.93;;;3.90;;
12385;SDS011;6257;57.634;18.310;2023-04-15T05:49:27;4.30;;;2.80;;
12385;SDS011;6257;57.634;18.310;2023-04-15T05:51:54;5.73;;;3.50;;
12385;SDS011;6257;57.634;18.310;2023-04-15T05:54:22;6.07;;;3.23;;
12385;SDS011;6257;57.634;18.310;2023-04-15T05:56:49;8.03;;;3.20;;
12385;SDS011;6257;57.634;18.310;2023-04-15T05:59:16;7.67;;;3.00;;
12385;SDS011;6257;57.634;18.310;2023-04-15T06:01:44;8.53;;;3.30;;
12385;SDS011;6257;57.634;18.310;2023-04-15T06:04:11;6.93;;;3.60;;
12385;SDS011;6257;57.634;18.310;2023-04-15T06:06:38;8.47;;;3.63;;
12385;SDS011;6257;57.634;18.310;2023-04-15T06:09:06;5.83;;;3.23;;
12385;SDS011;6257;57.634;18.310;2023-04-15T06:11:33;6.37;;;3.33;;
12385;SDS011;6257;57.634;18.310;2023-04-15T06:14:00;4.47;;;3.23;;
12385;SDS011;6257;57.634;18.310;2023-04-15T06:16:27;4.67;;;3.03;;
12385;SDS011;6257;57.634;18.310;2023-04-15T06:18:55;6.87;;;3.50;;
12385;SDS011;6257;57.634;18.310;2023-04-15T06:21:22;8.10;;;3.57;;
12385;SDS011;6257;57.634;18.310;2023-04-15T06:23:49;5.57;;;3.30;;
12385;SDS011;6257;57.634;18.310;2023-04-15T06:26:16;8.67;;;3.40;;
12385;SDS011;6257;57.634;18.310;2023-04-15T06:28:43;7.60;;;3.67;;
12385;SDS011;6257;57.634;18.310;2023-04-15T06:31:10;7.17;;;4.10;;
12385;SDS011;6257;57.634;18.310;2023-04-15T06:33:37;7.20;;;3.23;;
12385;SDS011;6257;57.634;18.310;2023-04-15T06:36:06;5.73;;;3.17;;
12385;SDS011;6257;57.634;18.310;2023-04-15T06:38:33;7.03;;;3.33;;
12385;SDS011;6257;57.634;18.310;2023-04-15T06:41:00;4.27;;;3.00;;
12385;SDS011;6257;57.634;18.310;2023-04-15T06:43:28;7.03;;;3.43;;
12385;SDS011;6257;57.634;18.310;2023-04-15T06:45:55;9.57;;;4.00;;
12385;SDS011;6257;57.634;18.310;2023-04-15T06:48:22;13.43;;;3.67;;
12385;SDS011;6257;57.634;18.310;2023-04-15T06:50:49;6.20;;;3.57;;
12385;SDS011;6257;57.634;18.310;2023-04-15T06:53:17;6.70;;;3.80;;
12385;SDS011;6257;57.634;18.310;2023-04-15T06:55:44;6.60;;;3.67;;
12385;SDS011;6257;57.634;18.310;2023-04-15T06:58:11;5.43;;;3.53;;
12385;SDS011;6257;57.634;18.310;2023-04-15T07:00:38;6.10;;;3.60;;
12385;SDS011;6257;57.634;18.310;2023-04-15T07:03:05;5.37;;;3.57;;
12385;SDS011;6257;57.634;18.310;2023-04-15T07:05:35;7.13;;;3.40;;
12385;SDS011;6257;57.634;18.310;2023-04-15T07:08:02;6.20;;;3.73;;
12385;SDS011;6257;57.634;18.310;2023-04-15T07:10:31;6.63;;;3.90;;
12385;SDS011;6257;57.634;18.310;2023-04-15T07:12:58;6.13;;;3.77;;
12385;SDS011;6257;57.634;18.310;2023-04-15T07:15:25;4.70;;;3.53;;
12385;SDS011;6257;57.634;18.310;2023-04-15T07:17:53;4.97;;;3.77;;
12385;SDS011;6257;57.634;18.310;2023-04-15T07:20:20;5.30;;;3.70;;
12385;SDS011;6257;57.634;18.310;2023-04-15T07:22:47;6.13;;;3.73;;
12385;SDS011;6257;57.634;18.310;2023-04-15T07:25:14;6.07;;;3.87;;
12385;SDS011;6257;57.634;18.310;2023-04-15T07:27:43;6.57;;;3.77;;
12385;SDS011;6257;57.634;18.310;2023-04-15T07:30:10;6.33;;;4.10;;
12385;SDS011;6257;57.634;18.310;2023-04-15T07:32:38;7.97;;;4.20;;
12385;SDS011;6257;57.634;18.310;2023-04-15T07:35:05;4.87;;;3.40;;
12385;SDS011;6257;57.634;18.310;2023-04-15T07:37:33;6.47;;;4.10;;
12385;SDS011;6257;57.634;18.310;2023-04-15T07:40:01;7.90;;;3.40;;
12385;SDS011;6257;57.634;18.310;2023-04-15T07:42:29;9.67;;;4.10;;
12385;SDS011;6257;57.634;18.310;2023-04-15T07:44:57;6.33;;;3.97;;
12385;SDS011;6257;57.634;18.310;2023-04-15T07:47:24;5.93;;;3.80;;
12385;SDS011;6257;57.634;18.310;2023-04-15T07:49:52;6.97;;;3.70;;
12385;SDS011;6257;57.634;18.310;2023-04-15T07:52:19;6.73;;;3.60;;
12385;SDS011;6257;57.634;18.310;2023-04-15T07:54:46;9.57;;;3.67;;
12385;SDS011;6257;57.634;18.310;2023-04-15T07:57:13;7.70;;;4.10;;
12385;SDS011;6257;57.634;18.310;2023-04-15T07:59:41;10.67;;;4.30;;
12385;SDS011;6257;57.634;18.310;2023-04-15T08:02:09;9.40;;;4.17;;
12385;SDS011;6257;57.634;18.310;2023-04-15T08:04:36;6.40;;;3.97;;
12385;SDS011;6257;57.634;18.310;2023-04-15T08:07:03;7.33;;;3.77;;
12385;SDS011;6257;57.634;18.310;2023-04-15T08:09:31;6.10;;;3.73;;
12385;SDS011;6257;57.634;18.310;2023-04-15T08:11:58;4.90;;;3.63;;
12385;SDS011;6257;57.634;18.310;2023-04-15T08:14:25;10.43;;;4.00;;
12385;SDS011;6257;57.634;18.310;2023-04-15T08:16:52;5.77;;;3.50;;
12385;SDS011;6257;57.634;18.310;2023-04-15T08:19:20;5.63;;;3.97;;
12385;SDS011;6257;57.634;18.310;2023-04-15T08:21:48;7.57;;;3.80;;
12385;SDS011;6257;57.634;18.310;2023-04-15T08:24:15;6.17;;;3.93;;
12385;SDS011;6257;57.634;18.310;2023-04-15T08:26:42;5.63;;;3.90;;
12385;SDS011;6257;57.634;18.310;2023-04-15T08:29:10;7.10;;;3.70;;
12385;SDS011;6257;57.634;18.310;2023-04-15T08:31:37;8.07;;;4.27;;
12385;SDS011;6257;57.634;18.310;2023-04-15T08:34:05;4.97;;;3.90;;
12385;SDS011;6257;57.634;18.310;2023-04-15T08:36:33;6.63;;;3.50;;
12385;SDS011;6257;57.634;18.310;2023-04-15T08:39:00;7.67;;;3.80;;
12385;SDS011;6257;57.634;18.310;2023-04-15T08:41:31;6.00;;;3.73;;
12385;SDS011;6257;57.634;18.310;2023-04-15T08:44:03;6.67;;;3.90;;
12385;SDS011;6257;57.634;18.310;2023-04-15T08:46:31;5.47;;;4.00;;
12385;SDS011;6257;57.634;18.310;2023-04-15T08:48:59;9.63;;;4.33;;
12385;SDS011;6257;57.634;18.310;2023-04-15T08:51:30;11.53;;;4.40;;
12385;SDS011;6257;57.634;18.310;2023-04-15T08:53:59;9.27;;;4.23;;
12385;SDS011;6257;57.634;18.310;2023-04-15T08:56:26;7.00;;;4.47;;
12385;SDS011;6257;57.634;18.310;2023-04-15T08:58:56;7.67;;;4.70;;
12385;SDS011;6257;57.634;18.310;2023-04-15T09:01:24;6.77;;;4.00;;
12385;SDS011;6257;57.634;18.310;2023-04-15T09:03:52;8.17;;;4.30;;
12385;SDS011;6257;57.634;18.310;2023-04-15T09:06:19;8.03;;;4.40;;
12385;SDS011;6257;57.634;18.310;2023-04-15T09:08:47;7.00;;;3.90;;
12385;SDS011;6257;57.634;18.310;2023-04-15T09:11:16;5.40;;;4.03;;
12385;SDS011;6257;57.634;18.310;2023-04-15T09:13:43;5.73;;;4.13;;
12385;SDS011;6257;57.634;18.310;2023-04-15T09:16:10;6.80;;;4.30;;
12385;SDS011;6257;57.634;18.310;2023-04-15T09:18:39;42.60;;;6.40;;
12385;SDS011;6257;57.634;18.310;2023-04-15T09:21:07;5.70;;;4.10;;
12385;SDS011;6257;57.634;18.310;2023-04-15T09:23:35;12.97;;;4.30;;
12385;SDS011;6257;57.634;18.310;2023-04-15T09:26:03;7.37;;;4.83;;
12385;SDS011;6257;57.634;18.310;2023-04-15T09:28:32;6.07;;;4.20;;
12385;SDS011;6257;57.634;18.310;2023-04-15T09:31:07;11.90;;;4.93;;
12385;SDS011;6257;57.634;18.310;2023-04-15T09:33:34;7.70;;;5.70;;
12385;SDS011;6257;57.634;18.310;2023-04-15T09:36:02;11.47;;;4.60;;
12385;SDS011;6257;57.634;18.310;2023-04-15T09:38:31;8.77;;;5.20;;
12385;SDS011;6257;57.634;18.310;2023-04-15T09:40:58;9.73;;;4.80;;
12385;SDS011;6257;57.634;18.310;2023-04-15T09:43:39;12.57;;;5.33;;
12385;SDS011;6257;57.634;18.310;2023-04-15T09:46:06;41.83;;;7.37;;
12385;SDS011;6257;57.634;18.310;2023-04-15T09:48:33;12.33;;;5.10;;
12385;SDS011;6257;57.634;18.310;2023-04-15T09:51:00;9.60;;;4.97;;
12385;SDS011;6257;57.634;18.310;2023-04-15T09:53:27;8.47;;;5.60;;
12385;SDS011;6257;57.634;18.310;2023-04-15T09:55:55;10.13;;;4.93;;
12385;SDS011;6257;57.634;18.310;2023-04-15T09:58:25;9.20;;;5.27;;
12385;SDS011;6257;57.634;18.310;2023-04-15T10:00:55;9.73;;;4.87;;
12385;SDS011;6257;57.634;18.310;2023-04-15T10:03:24;9.00;;;5.47;;
12385;SDS011;6257;57.634;18.310;2023-04-15T10:05:52;7.77;;;4.80;;
12385;SDS011;6257;57.634;18.310;2023-04-15T10:08:22;5.33;;;4.73;;
12385;SDS011;6257;57.634;18.310;2023-04-15T10:10:50;8.77;;;4.70;;
12385;SDS011;6257;57.634;18.310;2023-04-15T10:13:18;9.80;;;5.00;;
12385;SDS011;6257;57.634;18.310;2023-04-15T10:15:49;8.10;;;5.03;;
12385;SDS011;6257;57.634;18.310;2023-04-15T10:18:19;7.07;;;4.90;;
12385;SDS011;6257;57.634;18.310;2023-04-15T10:20:47;11.17;;;5.23;;
12385;SDS011;6257;57.634;18.310;2023-04-15T10:23:15;7.23;;;5.33;;
12385;SDS011;6257;57.634;18.310;2023-04-15T10:25:44;9.07;;;5.80;;
12385;SDS011;6257;57.634;18.310;2023-04-15T10:28:12;7.83;;;5.10;;
12385;SDS011;6257;57.634;18.310;2023-04-15T10:30:41;8.30;;;5.50;;
12385;SDS011;6257;57.634;18.310;2023-04-15T10:33:08;9.87;;;5.57;;
12385;SDS011;6257;57.634;18.310;2023-04-15T10:35:38;11.67;;;5.37;;
12385;SDS011;6257;57.634;18.310;2023-04-15T10:41:07;10.60;;;5.77;;
12385;SDS011;6257;57.634;18.310;2023-04-15T10:43:38;13.53;;;5.87;;
12385;SDS011;6257;57.634;18.310;2023-04-15T10:46:05;9.63;;;5.70;;
12385;SDS011;6257;57.634;18.310;2023-04-15T10:48:32;9.67;;;5.70;;
12385;SDS011;6257;57.634;18.310;2023-04-15T10:51:01;13.40;;;5.60;;
12385;SDS011;6257;57.634;18.310;2023-04-15T10:53:29;13.07;;;5.77;;
12385;SDS011;6257;57.634;18.310;2023-04-15T10:55:57;8.27;;;5.40;;
12385;SDS011;6257;57.634;18.310;2023-04-15T10:58:24;8.20;;;4.83;;
12385;SDS011;6257;57.634;18.310;2023-04-15T11:00:52;8.60;;;5.20;;
12385;SDS011;6257;57.634;18.310;2023-04-15T11:03:33;8.57;;;5.83;;
12385;SDS011;6257;57.634;18.310;2023-04-15T11:06:04;13.60;;;6.17;;
12385;SDS011;6257;57.634;18.310;2023-04-15T11:08:51;9.03;;;5.43;;
12385;SDS011;6257;57.634;18.310;2023-04-15T11:11:20;9.90;;;5.57;;
12385;SDS011;6257;57.634;18.310;2023-04-15T11:13:47;8.60;;;5.50;;
12385;SDS011;6257;57.634;18.310;2023-04-15T11:16:15;9.17;;;5.60;;
12385;SDS011;6257;57.634;18.310;2023-04-15T11:18:42;16.80;;;5.70;;
12385;SDS011;6257;57.634;18.310;2023-04-15T11:21:20;8.47;;;4.50;;
12385;SDS011;6257;57.634;18.310;2023-04-15T11:23:52;10.20;;;5.33;;
12385;SDS011;6257;57.634;18.310;2023-04-15T11:26:19;10.13;;;5.47;;
12385;SDS011;6257;57.634;18.310;2023-04-15T11:28:51;14.43;;;5.70;;
12385;SDS011;6257;57.634;18.310;2023-04-15T11:31:19;7.17;;;5.00;;
12385;SDS011;6257;57.634;18.310;2023-04-15T11:33:52;8.33;;;5.60;;
12385;SDS011;6257;57.634;18.310;2023-04-15T11:36:24;10.47;;;5.70;;
12385;SDS011;6257;57.634;18.310;2023-04-15T11:38:52;8.97;;;4.13;;
12385;SDS011;6257;57.634;18.310;2023-04-15T11:41:19;18.73;;;5.50;;
12385;SDS011;6257;57.634;18.310;2023-04-15T11:43:47;13.77;;;5.63;;
12385;SDS011;6257;57.634;18.310;2023-04-15T11:46:15;6.50;;;4.83;;
12385;SDS011;6257;57.634;18.310;2023-04-15T11:48:42;18.27;;;6.07;;
12385;SDS011;6257;57.634;18.310;2023-04-15T11:51:11;10.90;;;4.20;;
12385;SDS011;6257;57.634;18.310;2023-04-15T11:53:41;8.33;;;4.80;;
12385;SDS011;6257;57.634;18.310;2023-04-15T11:56:09;11.90;;;5.10;;
12385;SDS011;6257;57.634;18.310;2023-04-15T11:58:41;6.03;;;4.27;;
12385;SDS011;6257;57.634;18.310;2023-04-15T12:01:10;12.73;;;5.80;;
12385;SDS011;6257;57.634;18.310;2023-04-15T12:03:38;7.73;;;4.10;;
12385;SDS011;6257;57.634;18.310;2023-04-15T12:06:10;9.90;;;4.77;;
12385;SDS011;6257;57.634;18.310;2023-04-15T12:08:51;14.20;;;5.73;;
12385;SDS011;6257;57.634;18.310;2023-04-15T12:11:27;8.17;;;4.80;;
12385;SDS011;6257;57.634;18.310;2023-04-15T12:13:56;7.37;;;4.20;;
12385;SDS011;6257;57.634;18.310;2023-04-15T12:16:24;9.53;;;4.27;;
12385;SDS011;6257;57.634;18.310;2023-04-15T12:18:53;8.00;;;4.57;;
12385;SDS011;6257;57.634;18.310;2023-04-15T12:21:22;7.10;;;4.90;;
12385;SDS011;6257;57.634;18.310;2023-04-15T12:23:51;12.77;;;4.50;;
12385;SDS011;6257;57.634;18.310;2023-04-15T12:26:24;19.17;;;5.63;;
12385;SDS011;6257;57.634;18.310;2023-04-15T12:28:53;9.87;;;4.57;;
12385;SDS011;6257;57.634;18.310;2023-04-15T12:31:20;15.27;;;5.40;;
12385;SDS011;6257;57.634;18.310;2023-04-15T12:33:47;6.57;;;5.00;;
12385;SDS011;6257;57.634;18.310;2023-04-15T12:36:15;7.83;;;4.20;;
12385;SDS011;6257;57.634;18.310;2023-04-15T12:38:42;11.20;;;4.63;;
12385;SDS011;6257;57.634;18.310;2023-04-15T12:41:10;10.13;;;5.40;;
12385;SDS011;6257;57.634;18.310;2023-04-15T12:43:37;5.97;;;4.30;;
12385;SDS011;6257;57.634;18.310;2023-04-15T12:46:04;8.90;;;5.07;;
12385;SDS011;6257;57.634;18.310;2023-04-15T12:48:32;6.87;;;4.47;;
12385;SDS011;6257;57.634;18.310;2023-04-15T12:50:59;10.03;;;4.60;;
12385;SDS011;6257;57.634;18.310;2023-04-15T12:53:26;9.23;;;4.93;;
12385;SDS011;6257;57.634;18.310;2023-04-15T12:55:53;7.63;;;4.93;;
12385;SDS011;6257;57.634;18.310;2023-04-15T12:58:22;8.87;;;5.10;;
12385;SDS011;6257;57.634;18.310;2023-04-15T13:00:49;9.97;;;5.33;;
12385;SDS011;6257;57.634;18.310;2023-04-15T13:03:16;9.83;;;5.33;;
12385;SDS011;6257;57.634;18.310;2023-04-15T13:05:43;10.17;;;6.07;;
12385;SDS011;6257;57.634;18.310;2023-04-15T13:08:10;8.83;;;5.33;;
12385;SDS011;6257;57.634;18.310;2023-04-15T13:10:37;7.50;;;4.83;;
12385;SDS011;6257;57.634;18.310;2023-04-15T13:13:04;9.37;;;5.80;;
12385;SDS011;6257;57.634;18.310;2023-04-15T13:15:33;10.17;;;5.90;;
12385;SDS011;6257;57.634;18.310;2023-04-15T13:18:01;9.23;;;5.40;;
12385;SDS011;6257;57.634;18.310;2023-04-15T13:20:28;13.17;;;6.07;;
12385;SDS011;6257;57.634;18.310;2023-04-15T13:22:55;8.93;;;5.60;;
12385;SDS011;6257;57.634;18.310;2023-04-15T13:25:22;13.17;;;6.00;;
12385;SDS011;6257;57.634;18.310;2023-04-15T13:27:50;9.80;;;4.90;;
12385;SDS011;6257;57.634;18.310;2023-04-15T13:30:17;5.80;;;4.47;;
12385;SDS011;6257;57.634;18.310;2023-04-15T13:32:45;10.37;;;5.60;;
12385;SDS011;6257;57.634;18.310;2023-04-15T13:35:12;9.27;;;5.67;;
12385;SDS011;6257;57.634;18.310;2023-04-15T13:37:39;12.23;;;5.90;;
12385;SDS011;6257;57.634;18.310;2023-04-15T13:40:07;11.57;;;5.70;;
12385;SDS011;6257;57.634;18.310;2023-04-15T13:42:35;8.60;;;5.00;;
12385;SDS011;6257;57.634;18.310;2023-04-15T13:45:02;16.00;;;6.50;;
12385;SDS011;6257;57.634;18.310;2023-04-15T13:47:29;8.43;;;5.13;;
12385;SDS011;6257;57.634;18.310;2023-04-15T13:49:58;6.87;;;5.17;;
12385;SDS011;6257;57.634;18.310;2023-04-15T13:52:25;8.47;;;5.20;;
12385;SDS011;6257;57.634;18.310;2023-04-15T13:54:52;8.90;;;5.83;;
12385;SDS011;6257;57.634;18.310;2023-04-15T13:57:19;8.03;;;5.47;;
12385;SDS011;6257;57.634;18.310;2023-04-15T13:59:46;11.70;;;5.37;;
12385;SDS011;6257;57.634;18.310;2023-04-15T14:02:13;6.70;;;4.73;;
12385;SDS011;6257;57.634;18.310;2023-04-15T14:04:40;8.70;;;4.63;;
12385;SDS011;6257;57.634;18.310;2023-04-15T14:07:09;9.87;;;4.97;;
12385;SDS011;6257;57.634;18.310;2023-04-15T14:09:36;10.70;;;4.37;;
12385;SDS011;6257;57.634;18.310;2023-04-15T14:12:03;7.70;;;4.27;;
12385;SDS011;6257;57.634;18.310;2023-04-15T14:14:30;8.47;;;4.47;;
12385;SDS011;6257;57.634;18.310;2023-04-15T14:16:58;8.50;;;5.50;;
12385;SDS011;6257;57.634;18.310;2023-04-15T14:19:25;7.87;;;5.33;;
12385;SDS011;6257;57.634;18.310;2023-04-15T14:21:52;8.40;;;5.07;;
12385;SDS011;6257;57.634;18.310;2023-04-15T14:24:20;7.07;;;4.67;;
12385;SDS011;6257;57.634;18.310;2023-04-15T14:26:47;7.60;;;4.63;;
12385;SDS011;6257;57.634;18.310;2023-04-15T14:29:14;6.60;;;4.70;;
12385;SDS011;6257;57.634;18.310;2023-04-15T14:31:42;7.10;;;4.47;;
12385;SDS011;6257;57.634;18.310;2023-04-15T14:34:09;9.70;;;4.80;;
12385;SDS011;6257;57.634;18.310;2023-04-15T14:36:36;8.80;;;4.93;;
12385;SDS011;6257;57.634;18.310;2023-04-15T14:39:03;7.50;;;4.33;;
12385;SDS011;6257;57.634;18.310;2023-04-15T14:41:32;7.27;;;4.50;;
12385;SDS011;6257;57.634;18.310;2023-04-15T14:43:59;9.10;;;5.30;;
12385;SDS011;6257;57.634;18.310;2023-04-15T14:46:26;10.20;;;4.50;;
12385;SDS011;6257;57.634;18.310;2023-04-15T14:48:53;11.77;;;5.43;;
12385;SDS011;6257;57.634;18.310;2023-04-15T14:51:20;6.93;;;5.10;;
12385;SDS011;6257;57.634;18.310;2023-04-15T14:53:48;13.30;;;5.70;;